Time;durP1;ratioP1;P1;durP2;ratioP2;P2;SDS_P1;SDS_P2;PMS_P1;PMS_P2;Temp;Humidity;BMP_temperature;BMP_pressure;BME280_temperature;BME280_humidity;BME280_pressure;Samples;Min_cycle;Max_cycle;Signal;HPM_P1;HPM_P2
2023/01/01 00:02:26;;;;;;;393.70;328.23;;;8.10;99.90;;;8.82;100.00;98238.28;5221207;28;20267;-64
2023/01/01 00:05:08;;;;;;;257.55;201.65;;;8.10;99.90;;;8.80;100.00;98239.84;5218070;28;20676;-64
2023/01/01 00:07:41;;;;;;;147.20;119.03;;;8.10;99.90;;;8.79;100.00;98238.09;5222444;28;20652;-64
2023/01/01 00:10:29;;;;;;;75.20;57.58;;;8.10;99.90;;;8.75;100.00;98236.06;5217946;28;21743;-64
2023/01/01 00:13:02;;;;;;;77.72;61.63;;;8.00;99.90;;;8.77;100.00;98240.50;5221653;28;20245;-64
2023/01/01 00:15:36;;;;;;;56.33;45.13;;;8.10;99.90;;;8.85;100.00;98230.84;5221602;28;20724;-64
2023/01/01 00:18:09;;;;;;;73.65;57.50;;;8.00;99.90;;;8.74;100.00;98231.78;5221144;28;20656;-64
2023/01/01 00:20:42;;;;;;;83.85;70.45;;;8.00;99.90;;;8.68;100.00;98236.44;5215558;28;20919;-64
2023/01/01 00:23:15;;;;;;;68.95;53.33;;;7.90;99.90;;;8.67;100.00;98242.28;5219546;28;20706;-64
2023/01/01 00:25:49;;;;;;;52.40;43.00;;;8.00;99.90;;;8.69;100.00;98241.63;5222479;28;20323;-64
2023/01/01 00:28:22;;;;;;;65.20;50.88;;;7.90;99.90;;;8.78;100.00;98242.31;5221093;28;20205;-64
2023/01/01 00:30:56;;;;;;;57.70;48.67;;;8.00;99.90;;;8.76;100.00;98243.84;5220253;28;20303;-64
2023/01/01 00:33:29;;;;;;;55.63;46.78;;;8.00;99.90;;;8.77;100.00;98242.19;5221987;28;20574;-64
2023/01/01 00:36:07;;;;;;;75.28;55.78;;;8.00;99.90;;;8.64;100.00;98232.81;5221999;28;20272;-64
2023/01/01 00:38:41;;;;;;;69.88;55.80;;;8.00;99.90;;;8.68;100.00;98242.41;5218698;28;20263;-64
2023/01/01 00:41:16;;;;;;;75.03;60.95;;;8.00;99.90;;;8.67;100.00;98242.28;5220277;28;20304;-64
2023/01/01 00:43:49;;;;;;;78.60;60.80;;;8.00;99.90;;;8.73;100.00;98233.44;5222188;28;20925;-64
2023/01/01 00:46:24;;;;;;;58.72;50.35;;;8.10;99.90;;;8.72;100.00;98238.41;5220308;28;20266;-64
2023/01/01 00:48:57;;;;;;;67.18;52.33;;;8.10;99.90;;;8.76;100.00;98242.97;5221020;28;20611;-64
2023/01/01 00:51:30;;;;;;;46.20;38.22;;;8.10;99.90;;;8.76;100.00;98243.84;5220980;28;20699;-64
2023/01/01 00:54:09;;;;;;;43.28;35.05;;;8.00;99.90;;;8.63;100.00;98245.41;5219608;28;20201;-64
2023/01/01 00:56:42;;;;;;;52.53;45.00;;;7.90;99.90;;;8.60;100.00;98242.66;5214466;28;20296;-64
2023/01/01 00:59:15;;;;;;;60.13;48.70;;;7.90;99.90;;;8.61;100.00;98241.88;5220824;28;20296;-64
2023/01/01 01:01:49;;;;;;;51.47;43.20;;;7.90;99.90;;;8.61;100.00;98246.97;5217669;28;20276;-64
2023/01/01 01:04:23;;;;;;;51.13;43.67;;;8.00;99.90;;;8.67;100.00;98242.28;5219418;28;20199;-64
2023/01/01 01:06:56;;;;;;;49.75;42.92;;;8.00;99.90;;;8.75;100.00;98243.72;5218597;28;20251;-64
2023/01/01 01:09:29;;;;;;;55.35;43.95;;;8.20;99.90;;;8.84;100.00;98244.34;5220219;28;20647;-64
2023/01/01 01:12:02;;;;;;;49.53;41.42;;;8.20;99.90;;;8.91;100.00;98248.25;5217677;28;20303;-64
2023/01/01 01:14:50;;;;;;;38.30;31.83;;;8.30;99.90;;;8.96;100.00;98241.81;5219663;28;20216;-64
2023/01/01 01:17:25;;;;;;;34.50;28.05;;;8.20;99.90;;;8.88;100.00;98237.84;5220492;28;20622;-64
2023/01/01 01:19:58;;;;;;;35.10;31.23;;;8.10;99.90;;;8.80;100.00;98240.72;5216953;28;20235;-64
2023/01/01 01:22:33;;;;;;;40.13;33.42;;;8.10;99.90;;;8.73;100.00;98238.53;5219177;28;20343;-65
2023/01/01 01:25:07;;;;;;;41.47;34.47;;;8.00;99.90;;;8.73;100.00;98238.53;5217388;28;20306;-64
2023/01/01 01:27:40;;;;;;;42.78;33.10;;;8.00;99.90;;;8.78;100.00;98241.38;5220630;28;20208;-64
2023/01/01 01:30:14;;;;;;;38.22;31.05;;;8.10;99.90;;;8.77;100.00;98239.63;5219291;28;20328;-65
2023/01/01 01:32:48;;;;;;;39.10;31.35;;;8.10;99.90;;;8.73;100.00;98235.09;5220882;28;20311;-64
2023/01/01 01:35:21;;;;;;;36.22;30.52;;;8.00;99.90;;;8.72;100.00;98241.84;5216601;28;20660;-64
2023/01/01 01:37:54;;;;;;;47.10;38.50;;;8.00;99.90;;;8.64;100.00;98240.44;5213849;28;20208;-64
2023/01/01 01:40:28;;;;;;;35.35;31.35;;;8.00;99.90;;;8.66;100.00;98238.00;5220535;28;20251;-64
2023/01/01 01:43:01;;;;;;;39.67;32.30;;;8.00;99.90;;;8.72;100.00;98241.84;5216792;28;20257;-64
2023/01/01 01:45:34;;;;;;;36.25;30.77;;;8.00;99.90;;;8.68;100.00;98244.09;5219613;28;20228;-64
2023/01/01 01:48:10;;;;;;;35.15;28.88;;;8.00;99.90;;;8.66;100.00;98249.06;5220318;28;20288;-64
2023/01/01 01:50:47;;;;;;;38.63;30.60;;;7.90;99.90;;;8.54;100.00;98246.53;5215531;28;20214;-64
2023/01/01 01:53:23;;;;;;;35.80;30.65;;;7.80;99.90;;;8.60;100.00;98251.19;5218000;28;20288;-64
2023/01/01 01:56:00;;;;;;;40.20;32.60;;;7.80;99.90;;;8.56;100.00;98242.44;5220676;28;20204;-64
2023/01/01 01:58:34;;;;;;;43.05;33.55;;;7.80;99.90;;;8.52;100.00;98247.19;5223163;28;20237;-64
2023/01/01 02:01:08;;;;;;;39.28;32.60;;;7.80;99.90;;;8.51;100.00;98241.22;5224544;28;20312;-64
2023/01/01 02:03:49;;;;;;;33.75;29.08;;;7.80;99.90;;;8.47;100.00;98238.34;5221852;28;20232;-64
2023/01/01 02:06:22;;;;;;;35.83;29.10;;;7.80;99.90;;;8.52;100.00;98232.78;5214316;28;20292;-64
2023/01/01 02:08:58;;;;;;;37.33;32.08;;;7.80;99.90;;;8.49;100.00;98237.66;5218560;28;20244;-64
2023/01/01 02:11:31;;;;;;;42.33;35.03;;;7.80;99.90;;;8.41;100.00;98241.34;5221590;28;20229;-64
2023/01/01 02:14:05;;;;;;;39.40;32.60;;;7.80;99.90;;;8.45;100.00;98238.25;5221055;28;20229;-64
2023/01/01 02:16:44;;;;;;;41.92;34.50;;;7.80;99.90;;;8.45;100.00;98240.78;5222583;28;20279;-64
2023/01/01 02:19:36;;;;;;;40.05;34.20;;;7.80;99.90;;;8.49;100.00;98246.97;5223128;28;20204;-64
2023/01/01 02:22:17;;;;;;;38.97;33.58;;;7.80;99.90;;;8.50;100.00;98234.38;5221335;28;20252;-64
2023/01/01 02:25:05;;;;;;;42.03;33.83;;;7.80;99.90;;;8.45;100.00;98245.88;5219944;28;20205;-64
2023/01/01 02:27:53;;;;;;;38.70;30.98;;;7.70;99.90;;;8.37;100.00;98254.59;5222494;28;20286;-64
2023/01/01 02:30:30;;;;;;;37.75;31.58;;;7.60;99.90;;;8.36;100.00;98255.38;5223240;28;20250;-64
2023/01/01 02:33:10;;;;;;;39.28;33.83;;;7.60;99.90;;;8.23;100.00;98251.06;5223191;28;20744;-64
2023/01/01 02:35:49;;;;;;;40.13;33.95;;;7.60;99.90;;;8.20;100.00;98243.19;5221784;28;20208;-64
2023/01/01 02:38:29;;;;;;;36.33;31.10;;;7.50;99.90;;;8.16;100.00;98255.63;5223165;28;20682;-64
2023/01/01 02:41:06;;;;;;;44.47;35.38;;;7.50;99.90;;;8.13;100.00;98267.34;5223111;28;20221;-64
2023/01/01 02:43:40;;;;;;;41.88;32.58;;;7.40;99.90;;;8.20;100.00;98262.69;5218403;28;20695;-64
2023/01/01 02:46:14;;;;;;;50.40;36.63;;;7.50;99.90;;;8.15;100.00;98264.88;5217625;28;20211;-65
2023/01/01 02:48:49;;;;;;;45.00;36.50;;;7.40;99.90;;;8.10;100.00;98272.22;5220608;28;20232;-64
2023/01/01 02:51:34;;;;;;;43.30;33.55;;;7.40;99.90;;;8.11;100.00;98268.88;5221397;28;22050;-64
2023/01/01 02:54:12;;;;;;;37.97;31.33;;;7.40;99.90;;;8.11;100.00;98271.41;5221333;28;20229;-64
2023/01/01 02:56:53;;;;;;;33.53;28.10;;;7.40;99.90;;;8.20;100.00;98263.56;5221498;28;20284;-64
2023/01/01 03:02:36;;;;;;;38.30;31.50;;;7.40;99.90;;;8.11;100.00;98258.69;5219299;28;20221;-64
2023/01/01 03:05:20;;;;;;;37.50;30.95;;;7.40;99.90;;;7.90;100.00;98267.31;5215639;28;20193;-63
2023/01/01 03:08:06;;;;;;;44.50;34.22;;;7.30;99.90;;;7.90;100.00;98259.69;5221463;28;20201;-64
2023/01/01 03:10:46;;;;;;;40.23;33.23;;;7.20;99.90;;;7.91;100.00;98258.91;5220504;28;20217;-64
2023/01/01 03:13:29;;;;;;;40.60;33.50;;;7.20;99.90;;;7.88;100.00;98263.75;5218755;28;20258;-64
2023/01/01 03:16:10;;;;;;;44.08;36.00;;;7.20;99.90;;;7.92;100.00;98273.38;5221773;28;20208;-64
2023/01/01 03:19:09;;;;;;;42.43;33.83;;;7.20;99.90;;;7.83;100.00;98267.63;5218908;28;20201;-64
2023/01/01 03:21:47;;;;;;;41.10;34.03;;;7.20;99.90;;;7.90;100.00;98274.94;5219573;28;20217;-64
2023/01/01 03:24:25;;;;;;;39.67;32.78;;;7.20;99.90;;;7.89;100.00;98266.41;5214786;28;20383;-64
2023/01/01 03:27:02;;;;;;;43.70;35.33;;;7.20;99.90;;;7.66;100.00;98272.34;5221702;28;20606;-64
2023/01/01 03:29:42;;;;;;;45.03;34.03;;;7.10;99.90;;;7.71;100.00;98262.50;5221735;28;20241;-64
2023/01/01 03:32:20;;;;;;;51.85;39.25;;;7.10;99.90;;;7.70;100.00;98262.38;5221299;28;20320;-64
2023/01/01 03:34:56;;;;;;;54.72;42.45;;;7.10;99.90;;;7.75;100.00;98261.06;5215812;28;20296;-64
2023/01/01 03:37:30;;;;;;;53.65;40.33;;;7.20;99.90;;;7.79;100.00;98252.91;5216623;28;20290;-64
2023/01/01 03:40:07;;;;;;;44.53;36.65;;;7.20;99.90;;;7.82;100.00;98258.22;5221073;28;20304;-64
2023/01/01 03:42:45;;;;;;;43.90;35.13;;;7.20;99.90;;;7.85;100.00;98268.63;5212748;28;20304;-64
2023/01/01 03:45:22;;;;;;;50.47;38.90;;;7.20;99.90;;;7.88;100.00;98261.22;5222206;28;20288;-64
2023/01/01 03:47:56;;;;;;;52.90;41.20;;;7.30;99.90;;;7.89;100.00;98263.88;5218513;28;20231;-64
2023/01/01 03:50:40;;;;;;;53.30;41.83;;;7.30;99.90;;;7.93;100.00;98281.94;5219415;28;20606;-64
2023/01/01 03:53:24;;;;;;;49.17;39.03;;;7.30;99.90;;;7.89;100.00;98280.78;5220875;28;20308;-64
2023/01/01 03:56:07;;;;;;;43.15;35.03;;;7.20;99.90;;;8.21;100.00;98285.72;5220948;28;20221;-64
2023/01/01 03:58:47;;;;;;;42.20;34.83;;;7.50;99.90;;;7.92;100.00;98286.09;5218920;28;20328;-64
2023/01/01 04:01:27;;;;;;;41.13;34.37;;;7.30;99.90;;;7.79;100.00;98288.53;5220218;28;20319;-64
2023/01/01 04:04:03;;;;;;;39.50;33.17;;;7.10;99.90;;;7.78;100.00;98289.28;5220798;28;20577;-64
2023/01/01 04:06:37;;;;;;;41.97;32.63;;;7.10;99.90;;;7.71;100.00;98281.97;5220406;28;20201;-65
2023/01/01 04:09:16;;;;;;;38.73;33.60;;;6.90;99.90;;;7.63;100.00;98292.47;5220565;28;20295;-64
2023/01/01 04:12:03;;;;;;;39.90;33.63;;;6.90;99.90;;;7.49;100.00;98292.19;5221019;28;20291;-64
2023/01/01 04:14:39;;;;;;;41.97;32.87;;;6.80;99.90;;;7.48;100.00;98290.44;5221376;28;20227;-64
2023/01/01 04:17:13;;;;;;;41.67;34.33;;;6.70;99.90;;;7.36;100.00;98298.03;5218338;28;20736;-64
2023/01/01 04:19:46;;;;;;;43.00;34.47;;;6.70;99.90;;;7.35;100.00;98299.66;5220823;28;20224;-64
2023/01/01 04:22:28;;;;;;;43.07;34.37;;;6.60;99.90;;;7.29;100.00;98290.69;5219113;28;20240;-64
2023/01/01 04:25:01;;;;;;;46.97;37.50;;;6.80;99.90;;;7.39;100.00;98286.41;5220050;28;20227;-64
2023/01/01 04:27:34;;;;;;;46.20;34.83;;;6.80;99.90;;;7.42;100.00;98286.66;5220223;28;20570;-64
2023/01/01 04:30:11;;;;;;;46.08;36.40;;;6.90;99.90;;;7.50;100.00;98289.78;5220079;28;20691;-64
2023/01/01 04:32:45;;;;;;;45.63;36.70;;;6.90;99.90;;;7.63;100.00;98284.81;5216987;28;20324;-63
2023/01/01 04:35:18;;;;;;;38.75;30.83;;;7.00;99.90;;;7.64;100.00;98286.63;5220868;28;20316;-64
2023/01/01 04:37:53;;;;;;;39.50;31.77;;;7.00;99.90;;;7.61;100.00;98288.94;5219227;28;20616;-64
2023/01/01 04:40:26;;;;;;;45.47;33.63;;;7.00;99.90;;;7.63;100.00;98287.38;5219259;28;20209;-64
2023/01/01 04:42:59;;;;;;;34.90;28.33;;;7.00;99.90;;;7.62;100.00;98277.97;5219546;28;20244;-65
2023/01/01 04:45:32;;;;;;;42.33;33.50;;;7.00;99.90;;;7.64;100.00;98286.63;5220015;28;20209;-64
2023/01/01 04:48:05;;;;;;;41.77;33.83;;;6.90;99.90;;;7.65;100.00;98280.75;5218681;28;20215;-63
2023/01/01 04:50:39;;;;;;;36.83;31.95;;;6.90;99.90;;;7.59;100.00;98280.28;5217051;28;20630;-64
2023/01/01 04:53:13;;;;;;;39.92;32.53;;;6.80;99.90;;;7.48;100.00;98286.22;5219740;28;20225;-64
2023/01/01 04:55:46;;;;;;;39.80;31.43;;;6.80;99.90;;;7.39;100.00;98280.44;5219378;28;20576;-64
2023/01/01 04:58:19;;;;;;;35.43;28.00;;;6.70;99.90;;;7.38;100.00;98284.66;5220729;28;20576;-64
2023/01/01 05:00:52;;;;;;;43.77;31.67;;;6.70;99.90;;;7.31;100.00;98282.41;5217955;28;20620;-64
2023/01/01 05:03:25;;;;;;;35.93;28.57;;;6.70;99.90;;;7.34;100.00;98282.63;5218530;28;20193;-65
2023/01/01 05:06:02;;;;;;;37.27;29.17;;;6.70;99.90;;;7.35;100.00;98279.31;5219940;28;20204;-64
2023/01/01 05:08:39;;;;;;;40.70;30.53;;;6.80;99.90;;;7.56;100.00;98281.72;5219316;28;20636;-65
2023/01/01 05:11:14;;;;;;;40.63;33.17;;;6.80;99.90;;;7.45;100.00;98294.50;5219595;28;20240;-65
2023/01/01 05:13:51;;;;;;;40.93;33.47;;;6.70;99.90;;;7.27;100.00;98289.66;5219861;28;20284;-65
2023/01/01 05:16:27;;;;;;;34.40;29.07;;;6.60;99.90;;;7.21;100.00;98295.16;5218900;28;20247;-64
2023/01/01 05:19:01;;;;;;;34.17;26.90;;;6.60;99.90;;;7.22;100.00;98308.00;5218884;28;20612;-64
2023/01/01 05:21:39;;;;;;;31.83;24.07;;;6.70;99.90;;;7.37;100.00;98313.38;5218909;28;20283;-65
2023/01/01 05:24:14;;;;;;;29.77;24.73;;;6.90;99.90;;;7.54;100.00;98309.56;5219131;28;20232;-65
2023/01/01 05:26:47;;;;;;;33.57;24.57;;;7.10;99.90;;;7.73;100.00;98322.03;5219521;28;20208;-65
2023/01/01 05:29:23;;;;;;;33.60;26.27;;;7.20;99.90;;;7.92;100.00;98326.84;5219578;28;20699;-64
2023/01/01 05:31:56;;;;;;;37.43;29.97;;;7.40;99.90;;;8.20;100.00;98331.44;5221958;28;20252;-65
2023/01/01 05:34:29;;;;;;;35.60;30.10;;;7.70;99.90;;;8.39;100.00;98332.06;5220952;28;20228;-65
2023/01/01 05:37:01;;;;;;;40.50;32.53;;;7.90;99.90;;;8.57;100.00;98325.72;5225042;28;20201;-64
2023/01/01 05:39:36;;;;;;;42.22;32.78;;;8.20;99.90;;;8.73;100.00;98325.19;5222125;28;20224;-64
2023/01/01 05:42:09;;;;;;;36.00;29.52;;;8.30;99.90;;;8.86;100.00;98324.38;5223608;28;20212;-65
2023/01/01 05:44:42;;;;;;;40.28;32.85;;;8.40;99.90;;;8.91;100.00;98324.72;5222019;28;20251;-64
2023/01/01 05:47:17;;;;;;;35.47;29.48;;;8.40;99.90;;;8.91;100.00;98333.25;5221126;28;20282;-65
2023/01/01 05:49:50;;;;;;;38.08;29.92;;;8.40;99.90;;;8.93;100.00;98329.16;5224241;28;20228;-65
2023/01/01 05:52:23;;;;;;;39.15;30.52;;;8.40;99.90;;;8.90;100.00;98326.38;5221011;28;20252;-65
2023/01/01 05:55:00;;;;;;;40.63;32.70;;;8.50;99.90;;;8.95;100.00;98322.47;5223217;28;20208;-64
2023/01/01 05:57:33;;;;;;;37.55;31.02;;;8.50;99.90;;;8.95;100.00;98330.13;5221444;28;20291;-65
2023/01/01 06:00:08;;;;;;;36.45;29.05;;;8.50;99.90;;;9.02;100.00;98329.78;5222465;28;20228;-65
2023/01/01 06:02:41;;;;;;;37.67;30.58;;;8.60;99.90;;;9.05;100.00;98318.03;5221760;28;20319;-64
2023/01/01 06:05:14;;;;;;;32.90;27.77;;;8.60;99.90;;;9.05;100.00;98328.25;5222776;28;20209;-64
2023/01/01 06:07:47;;;;;;;32.25;27.80;;;8.60;99.90;;;9.09;100.00;98322.56;5221427;28;20723;-64
2023/01/01 06:10:22;;;;;;;33.20;28.20;;;8.60;99.90;;;9.10;100.00;98322.69;5222866;28;20208;-64
2023/01/01 06:12:57;;;;;;;31.67;25.63;;;8.60;99.90;;;9.10;100.00;98316.69;5219663;28;20597;-65
2023/01/01 06:15:30;;;;;;;31.10;25.27;;;8.70;99.90;;;9.07;100.00;98321.56;5221395;28;20336;-65
2023/01/01 06:18:03;;;;;;;30.70;24.58;;;8.70;99.90;;;9.10;100.00;98326.88;5222031;28;20233;-65
2023/01/01 06:20:36;;;;;;;25.45;22.30;;;8.70;99.90;;;9.13;100.00;98327.09;5222371;28;20697;-65
2023/01/01 06:23:10;;;;;;;24.60;19.02;;;8.70;99.90;;;9.31;100.00;98322.41;5222742;28;20201;-65
2023/01/01 06:25:44;;;;;;;23.00;19.42;;;8.90;99.90;;;9.38;100.00;98322.91;5221913;28;20320;-64
2023/01/01 06:28:17;;;;;;;20.30;17.48;;;8.90;99.90;;;9.38;100.00;98333.13;5223084;28;20291;-65
2023/01/01 06:30:50;;;;;;;20.00;16.83;;;9.00;99.90;;;9.43;100.00;98331.78;5221961;28;20269;-67
2023/01/01 06:33:23;;;;;;;21.42;17.73;;;9.00;99.90;;;9.44;100.00;98318.25;5223371;28;20221;-65
2023/01/01 06:35:56;;;;;;;19.13;16.38;;;9.00;99.90;;;9.42;100.00;98326.59;5221130;28;20251;-65
2023/01/01 06:38:31;;;;;;;19.48;15.98;;;9.00;99.90;;;9.47;100.00;98346.53;5219482;28;20292;-64
2023/01/01 06:41:08;;;;;;;16.45;14.02;;;9.00;99.90;;;9.55;100.00;98333.41;5223219;28;20634;-65
2023/01/01 06:43:41;;;;;;;18.67;15.63;;;9.10;99.90;;;9.54;100.00;98341.84;5221433;28;20201;-65
2023/01/01 06:46:17;;;;;;;21.42;17.60;;;9.10;99.90;;;9.42;100.00;98342.78;5221766;28;20275;-65
2023/01/01 06:48:53;;;;;;;18.50;15.18;;;9.00;99.90;;;9.43;100.00;98338.56;5219083;28;20212;-65
2023/01/01 06:51:29;;;;;;;16.40;14.70;;;9.10;99.90;;;9.51;100.00;98349.31;5222121;28;20253;-64
2023/01/01 06:54:04;;;;;;;18.35;15.55;;;9.10;99.90;;;9.48;100.00;98355.94;5217877;28;20239;-65
2023/01/01 06:56:39;;;;;;;15.35;13.55;;;9.10;99.90;;;9.53;100.00;98352.81;5221113;28;20197;-65
2023/01/01 06:59:12;;;;;;;14.85;13.32;;;9.10;99.90;;;9.59;100.00;98350.72;5217550;28;20215;-65
2023/01/01 07:01:45;;;;;;;14.82;12.70;;;9.20;99.90;;;9.62;100.00;98358.59;5222619;28;20239;-65
2023/01/01 07:04:18;;;;;;;13.70;12.13;;;9.20;99.90;;;9.76;100.00;98362.06;5217675;28;20225;-64
2023/01/01 07:06:51;;;;;;;14.43;12.02;;;9.30;99.90;;;9.82;100.00;98360.81;5220648;28;20202;-65
2023/01/01 07:09:24;;;;;;;12.32;10.93;;;9.40;99.90;;;9.83;100.00;98362.59;5216735;28;20302;-65
2023/01/01 07:11:59;;;;;;;11.85;10.50;;;9.40;99.90;;;9.89;100.00;98369.78;5221950;28;20581;-65
2023/01/01 07:14:32;;;;;;;11.52;10.30;;;9.40;99.90;;;9.95;100.00;98361.66;5221656;28;20221;-65
2023/01/01 07:17:05;;;;;;;18.95;15.82;;;9.40;99.90;;;9.85;100.00;98368.69;5221240;28;20221;-64
2023/01/01 07:19:38;;;;;;;13.65;12.05;;;9.40;99.90;;;9.84;100.00;98372.03;5219817;28;20315;-65
2023/01/01 07:22:11;;;;;;;12.32;10.32;;;9.40;99.90;;;9.82;100.00;98378.69;5219680;28;20242;-65
2023/01/01 07:24:44;;;;;;;12.40;10.88;;;9.50;99.90;;;9.92;100.00;98378.53;5221044;28;20296;-64
2023/01/01 07:27:18;;;;;;;10.93;9.82;;;9.50;99.90;;;9.93;100.00;98380.31;5212934;28;20201;-65
2023/01/01 07:29:52;;;;;;;11.25;10.15;;;9.50;99.90;;;9.87;100.00;98376.44;5219334;28;20720;-64
2023/01/01 07:32:25;;;;;;;9.73;8.82;;;9.40;99.90;;;9.91;100.00;98376.75;5218825;28;20308;-64
2023/01/01 07:34:58;;;;;;;10.15;9.07;;;9.50;99.90;;;10.02;100.00;98384.28;5216479;28;20288;-65
2023/01/01 07:37:31;;;;;;;9.20;8.20;;;9.50;99.90;;;10.11;100.00;98382.34;5217021;28;20197;-65
2023/01/01 07:40:05;;;;;;;7.90;7.10;;;9.60;99.90;;;10.28;100.00;98393.72;5218143;28;20355;-65
2023/01/01 07:42:40;;;;;;;7.53;6.70;;;9.60;99.90;;;10.33;100.00;98393.25;5219742;28;20220;-65
2023/01/01 07:45:13;;;;;;;7.72;7.00;;;9.80;99.90;;;10.45;100.00;98384.63;5218620;28;20676;-65
2023/01/01 07:47:50;;;;;;;8.07;7.20;;;9.90;99.90;;;10.59;99.30;98391.53;5219924;28;20201;-65
2023/01/01 07:50:28;;;;;;;8.23;6.82;;;10.10;99.90;;;10.63;98.29;98393.47;5217975;28;20587;-65
2023/01/01 07:53:01;;;;;;;7.97;7.18;;;10.10;99.90;;;10.72;97.90;98395.75;5218983;28;20232;-64
2023/01/01 07:55:34;;;;;;;8.30;7.50;;;10.20;99.90;;;10.80;98.08;98405.69;5219079;28;20224;-65
2023/01/01 07:58:09;;;;;;;8.50;7.70;;;10.30;99.90;;;10.88;96.18;98410.44;5219513;28;20247;-64
2023/01/01 08:00:47;;;;;;;8.00;7.22;;;10.40;99.90;;;10.92;96.90;98407.25;5215893;28;20288;-65
2023/01/01 08:03:20;;;;;;;8.10;7.28;;;10.40;99.90;;;10.89;96.91;98419.84;5212477;28;20232;-65
2023/01/01 08:05:53;;;;;;;8.60;7.28;;;10.40;99.90;;;10.92;97.41;98417.50;5217567;28;20576;-65
2023/01/01 08:08:26;;;;;;;7.88;6.80;;;10.40;99.90;;;11.02;97.47;98417.31;5219137;28;20198;-65
2023/01/01 08:11:00;;;;;;;9.18;7.70;;;10.40;99.90;;;11.11;96.02;98415.34;5218964;28;20249;-65
2023/01/01 08:13:37;;;;;;;8.02;7.22;;;10.50;99.90;;;11.19;95.33;98418.38;5216129;28;20224;-64
2023/01/01 08:16:10;;;;;;;8.88;6.55;;;10.60;99.90;;;11.34;95.95;98408.22;5214925;28;20200;-64
2023/01/01 08:18:43;;;;;;;7.55;6.75;;;10.80;99.90;;;11.47;95.31;98401.41;5217450;28;20200;-64
2023/01/01 08:21:17;;;;;;;8.23;7.43;;;10.90;99.90;;;11.59;93.70;98411.53;5217646;28;20297;-64
2023/01/01 08:23:50;;;;;;;7.95;7.15;;;11.00;99.90;;;11.62;93.52;98410.84;5216709;28;20252;-64
2023/01/01 08:26:29;;;;;;;7.43;6.60;;;11.00;99.90;;;11.60;93.23;98417.53;5217566;28;20615;-64
2023/01/01 08:29:06;;;;;;;7.65;6.85;;;11.00;99.90;;;11.58;92.88;98419.97;5219533;28;20750;-64
2023/01/01 08:31:40;;;;;;;7.63;6.85;;;11.00;99.90;;;11.54;92.29;98429.97;5217121;28;20240;-64
2023/01/01 08:34:13;;;;;;;6.82;6.22;;;11.00;99.90;;;11.53;91.92;98436.72;5217278;28;20210;-64
2023/01/01 08:36:46;;;;;;;7.05;6.28;;;11.00;99.90;;;11.49;92.79;98432.22;5218175;28;20247;-65
2023/01/01 08:39:19;;;;;;;7.90;7.10;;;11.00;99.90;;;11.65;91.92;98434.06;5215980;28;20721;-64
2023/01/01 08:41:52;;;;;;;7.93;6.03;;;11.00;99.90;;;11.52;92.85;98445.22;5217015;28;20300;-64
2023/01/01 08:44:27;;;;;;;8.02;6.65;;;11.00;99.90;;;11.54;92.09;98443.63;5216287;28;20284;-64
2023/01/01 08:47:00;;;;;;;8.48;7.63;;;11.00;99.90;;;11.56;93.45;98449.75;5216461;28;20312;-65
2023/01/01 08:49:33;;;;;;;8.25;7.55;;;10.90;99.90;;;11.46;93.83;98461.06;5218515;28;20197;-65
2023/01/01 08:52:06;;;;;;;7.75;7.05;;;10.80;99.90;;;11.34;93.49;98459.41;5217151;28;20502;-65
2023/01/01 08:54:39;;;;;;;7.20;6.50;;;10.70;99.90;;;11.29;93.99;98466.78;5218034;28;20283;-64
2023/01/01 08:57:12;;;;;;;6.70;6.10;;;10.70;99.90;;;11.18;95.14;98458.41;5217128;28;20197;-65
2023/01/01 08:59:47;;;;;;;7.50;6.70;;;10.60;99.90;;;11.47;91.36;98461.94;5218388;28;20262;-64
2023/01/01 09:02:20;;;;;;;7.88;6.50;;;10.80;99.90;;;11.49;91.26;98455.25;5214989;28;20239;-64
2023/01/01 09:04:53;;;;;;;6.85;6.15;;;11.00;99.90;;;11.48;93.01;98458.63;5217294;28;20619;-65
2023/01/01 09:07:26;;;;;;;7.20;6.45;;;11.00;99.90;;;11.52;93.25;98463.13;5215986;28;20594;-64
2023/01/01 09:09:59;;;;;;;6.78;6.15;;;10.90;99.90;;;11.54;94.17;98459.00;5217882;28;20209;-64
2023/01/01 09:12:33;;;;;;;7.95;7.10;;;10.90;99.90;;;11.55;94.04;98455.63;5218936;28;20224;-65
2023/01/01 09:15:15;;;;;;;6.88;6.18;;;11.00;99.90;;;11.54;94.35;98471.78;5216586;28;20750;-65
2023/01/01 09:17:49;;;;;;;7.78;6.97;;;10.90;99.90;;;11.52;95.32;98472.50;5217446;28;20203;-65
2023/01/01 09:20:22;;;;;;;11.00;9.90;;;10.80;99.90;;;11.53;95.98;98466.56;5214511;28;20267;-64
2023/01/01 09:22:55;;;;;;;10.55;9.50;;;10.80;99.90;;;11.47;96.59;98467.06;5216541;28;20282;-65
2023/01/01 09:25:36;;;;;;;10.48;8.75;;;10.70;99.90;;;11.54;96.26;98474.34;5215037;28;20653;-64
2023/01/01 09:28:12;;;;;;;10.13;9.13;;;10.70;99.90;;;11.57;97.61;98459.19;5215209;28;20758;-64
2023/01/01 09:30:47;;;;;;;10.10;9.18;;;10.70;99.90;;;11.53;98.22;98456.31;5217627;28;20722;-64
2023/01/01 09:33:20;;;;;;;10.18;9.27;;;10.70;99.90;;;11.46;98.12;98460.19;5219172;28;20207;-65
2023/01/01 09:35:53;;;;;;;7.95;7.20;;;10.70;99.90;;;11.38;99.54;98475.03;5215527;28;20225;-65
2023/01/01 09:38:26;;;;;;;8.98;8.25;;;10.70;99.90;;;11.43;99.72;98466.00;5219416;28;20286;-65
2023/01/01 09:41:11;;;;;;;10.88;9.32;;;10.70;99.90;;;11.42;99.49;98468.47;5218294;28;20304;-64
2023/01/01 09:43:57;;;;;;;10.38;9.38;;;10.60;99.90;;;11.35;100.00;98467.16;5217935;28;20282;-65
2023/01/01 09:46:32;;;;;;;9.70;8.80;;;10.50;99.90;;;11.28;100.00;98471.03;5210060;28;20209;-64
2023/01/01 09:49:11;;;;;;;10.90;9.80;;;10.50;99.90;;;11.14;100.00;98461.56;5214776;28;20216;-65
2023/01/01 09:51:52;;;;;;;9.10;8.30;;;10.30;99.90;;;11.19;100.00;98455.09;5212804;28;20315;-64
2023/01/01 09:54:34;;;;;;;10.63;9.13;;;10.40;99.90;;;11.16;100.00;98460.00;5217491;28;20214;-65
2023/01/01 09:57:11;;;;;;;8.35;7.65;;;10.30;99.90;;;11.10;100.00;98462.16;5215897;28;20651;-64
2023/01/01 09:59:52;;;;;;;10.02;8.20;;;10.30;99.90;;;11.07;100.00;98459.41;5217585;28;20206;-65
2023/01/01 10:02:41;;;;;;;8.10;7.40;;;10.30;99.90;;;11.02;100.00;98465.91;5224400;22;20254;-64
2023/01/01 10:05:33;;;;;;;9.10;7.10;;;10.30;99.90;;;11.02;100.00;98458.25;5171029;28;20203;-64
2023/01/01 10:08:18;;;;;;;6.90;5.88;;;10.30;99.90;;;11.04;100.00;98470.34;5176111;28;20210;-64
2023/01/01 10:11:05;;;;;;;5.53;5.03;;;10.40;99.90;;;11.35;99.25;98471.41;5175184;28;20243;-64
2023/01/01 10:13:43;;;;;;;9.27;8.38;;;10.80;99.90;;;11.47;99.04;98462.84;5185854;28;20226;-64
2023/01/01 10:16:30;;;;;;;10.18;9.27;;;10.80;99.90;;;11.44;99.81;98461.75;5183979;28;20206;-64
2023/01/01 10:19:20;;;;;;;11.65;10.55;;;10.70;99.90;;;11.43;98.45;98454.88;5183526;28;20218;-64
2023/01/01 10:21:58;;;;;;;11.77;10.68;;;10.60;99.90;;;11.50;97.53;98457.94;5187842;28;20272;-64
2023/01/01 10:24:40;;;;;;;10.95;9.95;;;10.60;99.90;;;11.47;97.11;98469.63;5183702;28;20681;-64
2023/01/01 10:27:27;;;;;;;11.10;10.00;;;10.60;99.90;;;11.36;97.45;98460.38;5181545;28;20284;-65
2023/01/01 10:30:04;;;;;;;10.15;9.18;;;10.60;99.90;;;11.40;98.37;98470.91;5173732;28;20725;-64
2023/01/01 10:32:39;;;;;;;16.58;14.88;;;10.60;99.90;;;11.46;98.00;98466.19;5175795;28;20726;-63
2023/01/01 10:35:17;;;;;;;17.60;15.80;;;10.60;99.90;;;11.20;98.80;98461.97;5184363;28;20253;-64
2023/01/01 10:37:51;;;;;;;15.57;14.07;;;10.40;99.90;;;11.24;99.40;98461.38;5180781;28;20307;-63
2023/01/01 10:40:27;;;;;;;14.95;12.85;;;10.40;99.90;;;11.16;100.00;98464.22;5177005;28;22582;-64
2023/01/01 10:43:03;;;;;;;15.35;13.85;;;10.30;99.90;;;11.11;100.00;98463.94;5177495;28;20245;-64
2023/01/01 10:45:41;;;;;;;15.15;13.55;;;10.30;99.90;;;11.10;100.00;98454.47;5176886;28;20211;-64
2023/01/01 10:48:17;;;;;;;15.23;13.93;;;10.20;99.90;;;11.04;100.00;98456.66;5176942;28;20210;-63
2023/01/01 10:50:55;;;;;;;15.25;13.85;;;10.20;99.90;;;11.06;100.00;98452.53;5173260;28;20206;-64
2023/01/01 10:53:32;;;;;;;14.68;13.27;;;10.20;99.90;;;11.09;100.00;98462.06;5175028;28;20226;-64